Time;durP1;ratioP1;P1;durP2;ratioP2;P2;SDS_P1;SDS_P2;PMS_P1;PMS_P2;Temp;Humidity;BMP_temperature;BMP_pressure;BME280_temperature;BME280_humidity;BME280_pressure;Samples;Min_cycle;Max_cycle;Signal;HPM_P1;HPM_P2
2023/04/27 00:02:14;;;;;;;3.70;1.83;;;;;;;;;;10425016;28;21433;-82
2023/04/27 00:07:18;;;;;;;2.60;1.77;;;;;;;;;;10432632;28;20764;-83
2023/04/27 00:12:21;;;;;;;1.90;1.60;;;;;;;;;;10407118;28;20052;-82
2023/04/27 00:17:25;;;;;;;2.83;1.83;;;;;;;;;;10420532;28;20056;-82
2023/04/27 00:22:29;;;;;;;2.45;1.50;;;;;;;;;;10433475;28;20843;-83
2023/04/27 00:27:32;;;;;;;4.45;2.20;;;;;;;;;;10399946;28;20080;-83
2023/04/27 00:32:36;;;;;;;4.07;1.83;;;;;;;;;;10417595;28;20053;-84
2023/04/27 00:37:40;;;;;;;4.25;1.75;;;;;;;;;;10423110;28;20744;-82
2023/04/27 00:42:43;;;;;;;2.53;1.88;;;;;;;;;;10428030;28;20107;-83
2023/04/27 00:47:48;;;;;;;3.78;2.00;;;;;;;;;;10406444;28;20144;-84
2023/04/27 00:52:51;;;;;;;3.80;1.70;;;;;;;;;;10421423;28;20751;-82
2023/04/27 00:57:55;;;;;;;2.50;1.63;;;;;;;;;;10412863;28;20427;-83
2023/04/27 01:03:00;;;;;;;3.35;1.50;;;;;;;;;;10411683;28;20258;-83
2023/04/27 01:08:03;;;;;;;2.70;1.73;;;;;;;;;;10433062;28;20088;-84
2023/04/27 01:13:07;;;;;;;3.03;1.90;;;;;;;;;;10423023;28;20747;-83
2023/04/27 01:18:11;;;;;;;3.97;2.20;;;;;;;;;;10440515;28;20055;-83
2023/04/27 01:23:16;;;;;;;3.05;1.80;;;;;;;;;;10415531;28;20045;-83
2023/04/27 01:28:19;;;;;;;2.92;1.92;;;;;;;;;;10416866;28;20148;-83
2023/04/27 01:33:23;;;;;;;2.75;1.98;;;;;;;;;;10416447;28;20045;-83
2023/04/27 01:38:27;;;;;;;3.33;2.00;;;;;;;;;;10412709;28;20048;-83
2023/04/27 01:43:31;;;;;;;3.53;1.58;;;;;;;;;;10405034;28;20049;-83
2023/04/27 01:48:36;;;;;;;2.90;1.67;;;;;;;;;;10412164;28;20139;-83
2023/04/27 01:53:42;;;;;;;3.67;1.75;;;;;;;;;;10417259;28;20119;-82
2023/04/27 01:58:45;;;;;;;3.58;1.83;;;;;;;;;;10413206;28;20054;-84
2023/04/27 02:03:48;;;;;;;2.90;1.70;;;;;;;;;;10393518;28;20048;-83
2023/04/27 02:08:53;;;;;;;2.28;1.40;;;;;;;;;;10418976;28;20137;-82
2023/04/27 02:13:57;;;;;;;2.60;1.73;;;;;;;;;;10408629;28;20045;-83
2023/04/27 02:19:06;;;;;;;3.67;2.00;;;;;;;;;;10414513;28;20045;-83
2023/04/27 02:24:11;;;;;;;3.15;1.75;;;;;;;;;;10426653;28;20041;-84
2023/04/27 02:29:15;;;;;;;3.20;1.55;;;;;;;;;;10408620;28;20059;-83
2023/04/27 02:34:18;;;;;;;1.95;1.52;;;;;;;;;;10395118;28;20080;-84
2023/04/27 02:39:23;;;;;;;1.60;1.40;;;;;;;;;;10403910;28;20051;-83
2023/04/27 02:44:26;;;;;;;3.53;1.38;;;;;;;;;;10412908;28;20041;-85
2023/04/27 02:49:30;;;;;;;2.17;1.52;;;;;;;;;;10435666;28;20053;-84
2023/04/27 02:54:36;;;;;;;2.60;1.40;;;;;;;;;;10427636;28;20049;-85
2023/04/27 02:59:40;;;;;;;4.85;1.33;;;;;;;;;;10413986;28;20057;-85
2023/04/27 03:04:43;;;;;;;1.55;1.38;;;;;;;;;;10425392;28;20051;-85
2023/04/27 03:09:48;;;;;;;3.35;1.70;;;;;;;;;;10432136;28;20052;-86
2023/04/27 03:14:51;;;;;;;2.63;1.50;;;;;;;;;;10437401;28;20080;-85
2023/04/27 03:19:54;;;;;;;1.75;1.20;;;;;;;;;;10421904;28;20073;-86
2023/04/27 03:25:00;;;;;;;3.25;1.65;;;;;;;;;;10432157;28;20069;-85
2023/04/27 03:30:04;;;;;;;3.72;1.70;;;;;;;;;;10411287;28;20113;-86
2023/04/27 03:35:09;;;;;;;1.98;1.40;;;;;;;;;;10401880;28;20042;-85
2023/04/27 03:40:14;;;;;;;2.85;1.48;;;;;;;;;;10393344;28;20049;-86
2023/04/27 03:45:18;;;;;;;2.60;1.63;;;;;;;;;;10408135;28;20091;-85
2023/04/27 03:50:21;;;;;;;2.83;1.42;;;;;;;;;;10402123;28;20617;-86
2023/04/27 03:55:26;;;;;;;1.60;1.40;;;;;;;;;;10416679;28;20041;-86
2023/04/27 04:00:30;;;;;;;2.70;1.65;;;;;;;;;;10425025;28;20076;-86
2023/04/27 04:05:33;;;;;;;1.30;1.20;;;;;;;;;;10407343;28;20048;-85
2023/04/27 04:10:38;;;;;;;1.92;1.42;;;;;;;;;;10411030;28;20049;-84
2023/04/27 04:15:42;;;;;;;1.52;1.42;;;;;;;;;;10435994;28;20049;-83
2023/04/27 04:20:45;;;;;;;2.95;1.60;;;;;;;;;;10407008;28;20080;-84
2023/04/27 04:25:50;;;;;;;1.67;1.17;;;;;;;;;;10420382;28;20132;-83
2023/04/27 04:30:53;;;;;;;2.38;1.25;;;;;;;;;;10426090;28;20456;-82
2023/04/27 04:35:57;;;;;;;1.77;1.13;;;;;;;;;;10398677;28;20053;-82
2023/04/27 04:41:02;;;;;;;1.58;1.33;;;;;;;;;;10400705;28;20393;-82
2023/04/27 04:46:08;;;;;;;1.90;1.50;;;;;;;;;;10416298;28;20695;-82
2023/04/27 04:51:11;;;;;;;2.60;1.80;;;;;;;;;;10405950;28;20807;-82
2023/04/27 04:56:16;;;;;;;1.65;1.50;;;;;;;;;;10414419;28;20136;-83
2023/04/27 05:01:19;;;;;;;2.38;1.48;;;;;;;;;;10413821;28;20051;-83
2023/04/27 05:06:23;;;;;;;1.70;1.60;;;;;;;;;;10427402;28;20124;-85
2023/04/27 05:11:28;;;;;;;4.13;1.70;;;;;;;;;;10407163;28;20551;-84
2023/04/27 05:16:31;;;;;;;2.35;1.65;;;;;;;;;;10413120;28;20076;-84
2023/04/27 05:21:35;;;;;;;1.20;1.10;;;;;;;;;;10403909;28;20072;-86
2023/04/27 05:26:43;;;;;;;2.60;1.67;;;;;;;;;;10406834;28;20197;-84
2023/04/27 05:31:46;;;;;;;2.97;1.70;;;;;;;;;;10410844;28;20415;-86
2023/04/27 05:36:50;;;;;;;2.10;1.65;;;;;;;;;;10417753;28;20055;-85
2023/04/27 05:41:55;;;;;;;3.10;1.80;;;;;;;;;;10420691;28;20061;-85
2023/04/27 05:46:58;;;;;;;4.28;1.38;;;;;;;;;;10436598;28;20129;-84
2023/04/27 05:52:03;;;;;;;1.40;1.23;;;;;;;;;;10424179;28;20053;-86
2023/04/27 05:57:08;;;;;;;3.00;1.33;;;;;;;;;;10419982;28;20055;-84
2023/04/27 06:02:11;;;;;;;3.40;1.40;;;;;;;;;;10417259;28;20056;-84
2023/04/27 06:07:15;;;;;;;1.90;1.15;;;;;;;;;;10397674;28;20065;-84
2023/04/27 06:12:20;;;;;;;1.88;1.40;;;;;;;;;;10413576;28;20033;-85
2023/04/27 06:17:23;;;;;;;3.38;1.90;;;;;;;;;;10425256;28;20046;-84
2023/04/27 06:22:27;;;;;;;2.13;1.77;;;;;;;;;;10408037;28;20045;-84
2023/04/27 06:27:31;;;;;;;3.30;2.35;;;;;;;;;;10413223;28;20042;-84
2023/04/27 06:32:35;;;;;;;2.60;1.70;;;;;;;;;;10425825;28;20053;-85
2023/04/27 06:37:38;;;;;;;2.40;1.80;;;;;;;;;;10410668;28;20065;-86
2023/04/27 06:42:42;;;;;;;2.20;1.60;;;;;;;;;;10419251;28;20045;-85
2023/04/27 06:47:46;;;;;;;4.22;1.98;;;;;;;;;;10407125;28;20053;-86
2023/04/27 06:52:49;;;;;;;2.83;1.98;;;;;;;;;;10405516;28;20118;-85
2023/04/27 06:57:54;;;;;;;6.57;2.60;;;;;;;;;;10410957;28;20048;-85
2023/04/27 07:02:57;;;;;;;2.47;1.88;;;;;;;;;;10413173;28;20160;-86
2023/04/27 07:08:00;;;;;;;3.30;2.00;;;;;;;;;;10425068;28;20512;-86
2023/04/27 07:13:06;;;;;;;2.28;1.40;;;;;;;;;;10412327;28;20045;-86
2023/04/27 07:18:11;;;;;;;4.10;1.70;;;;;;;;;;10419480;28;20049;-85
2023/04/27 07:23:14;;;;;;;4.93;2.33;;;;;;;;;;10436931;28;20743;-84
2023/04/27 07:28:18;;;;;;;4.25;2.05;;;;;;;;;;10418680;28;20418;-85
2023/04/27 07:33:22;;;;;;;2.35;1.83;;;;;;;;;;10430565;28;20044;-85
2023/04/27 07:38:25;;;;;;;5.63;2.38;;;;;;;;;;10426494;28;20054;-84
2023/04/27 07:43:33;;;;;;;3.88;1.80;;;;;;;;;;10456465;23;20070;-87
2023/04/27 07:48:37;;;;;;;5.45;1.95;;;;;;;;;;10342408;28;20050;-88
2023/04/27 07:53:45;;;;;;;3.30;1.80;;;;;;;;;;10323905;28;20140;-87
2023/04/27 07:58:51;;;;;;;4.72;1.52;;;;;;;;;;10307321;28;20133;-87
2023/04/27 08:03:57;;;;;;;3.00;1.73;;;;;;;;;;10321660;28;20054;-87
2023/04/27 08:09:03;;;;;;;9.18;3.00;;;;;;;;;;10340792;28;20151;-87
2023/04/27 08:14:12;;;;;;;4.73;1.67;;;;;;;;;;10325633;28;20050;-87
2023/04/27 08:19:15;;;;;;;1.83;1.27;;;;;;;;;;10326909;28;20053;-87
2023/04/27 08:24:19;;;;;;;8.18;2.35;;;;;;;;;;10321092;28;20141;-87
2023/04/27 08:29:25;;;;;;;3.45;1.55;;;;;;;;;;10327410;28;20081;-88
2023/04/27 08:34:31;;;;;;;3.85;1.42;;;;;;;;;;10336820;28;20042;-89
2023/04/27 08:39:34;;;;;;;2.85;1.35;;;;;;;;;;10342784;28;20060;-88
2023/04/27 08:44:40;;;;;;;3.28;1.80;;;;;;;;;;10341788;28;20049;-89
2023/04/27 08:49:44;;;;;;;3.08;1.70;;;;;;;;;;10318089;28;20050;-87
2023/04/27 08:54:48;;;;;;;2.78;1.60;;;;;;;;;;10329386;28;20054;-87
2023/04/27 09:00:00;;;;;;;2.10;1.10;;;;;;;;;;10318858;28;20057;-87
2023/04/27 09:05:14;;;;;;;4.32;1.40;;;;;;;;;;10326349;28;20115;-88
2023/04/27 09:10:18;;;;;;;3.85;1.90;;;;;;;;;;10348605;28;20043;-87
2023/04/27 09:15:23;;;;;;;5.22;2.00;;;;;;;;;;10317307;28;20070;-90
2023/04/27 09:20:30;;;;;;;2.92;1.70;;;;;;;;;;10330710;28;20471;-87
2023/04/27 09:25:34;;;;;;;2.78;1.45;;;;;;;;;;10325632;28;20038;-86
2023/04/27 09:30:39;;;;;;;4.07;2.13;;;;;;;;;;10321521;28;20054;-86
2023/04/27 09:35:46;;;;;;;2.60;1.85;;;;;;;;;;10325781;28;20053;-89
2023/04/27 09:40:52;;;;;;;4.35;2.03;;;;;;;;;;10327020;28;20054;-89
2023/04/27 09:45:58;;;;;;;3.38;1.42;;;;;;;;;;10324996;28;20042;-90
2023/04/27 09:51:01;;;;;;;1.73;1.30;;;;;;;;;;10331792;28;20050;-86
2023/04/27 09:56:27;;;;;;;2.30;1.33;;;;;;;;;;10314839;28;20633;-87
2023/04/27 10:01:39;;;;;;;2.20;1.47;;;;;;;;;;10324089;28;20169;-86
2023/04/27 10:07:03;;;;;;;2.85;1.70;;;;;;;;;;10330514;28;20502;-89
2023/04/27 10:12:19;;;;;;;3.25;1.45;;;;;;;;;;10327630;28;20469;-88
2023/04/27 10:17:36;;;;;;;2.45;1.50;;;;;;;;;;10321248;28;20417;-88
2023/04/27 10:22:40;;;;;;;1.98;1.17;;;;;;;;;;10319887;28;20055;-85
2023/04/27 10:27:50;;;;;;;3.38;1.13;;;;;;;;;;10290423;28;20054;-85
2023/04/27 10:40:09;;;;;;;1.65;1.10;;;;;;;;;;10162059;28;20044;-86
2023/04/27 10:45:14;;;;;;;3.17;1.00;;;;;;;;;;10308199;28;20168;-88
2023/04/27 10:50:19;;;;;;;2.55;1.50;;;;;;;;;;10318518;28;20137;-86
2023/04/27 10:55:26;;;;;;;2.78;1.58;;;;;;;;;;10323792;28;20057;-85
2023/04/27 11:00:33;;;;;;;2.67;1.13;;;;;;;;;;10311440;28;20042;-85
2023/04/27 11:05:37;;;;;;;2.28;1.25;;;;;;;;;;10301745;28;20046;-89
2023/04/27 11:10:45;;;;;;;2.55;1.33;;;;;;;;;;10319557;28;20109;-86
2023/04/27 11:15:50;;;;;;;2.72;1.50;;;;;;;;;;10302686;28;20137;-86
2023/04/27 11:21:05;;;;;;;2.50;1.45;;;;;;;;;;10320617;28;20042;-85
2023/04/27 11:26:14;;;;;;;4.73;1.70;;;;;;;;;;10320919;28;20046;-86
2023/04/27 11:31:18;;;;;;;3.50;2.08;;;;;;;;;;10315112;28;20046;-85
2023/04/27 11:36:25;;;;;;;1.60;1.00;;;;;;;;;;10314376;28;20042;-86
2023/04/27 11:41:45;;;;;;;3.05;1.63;;;;;;;;;;10311648;28;20050;-85
2023/04/27 11:46:48;;;;;;;2.20;1.10;;;;;;;;;;10317470;28;20070;-86
2023/04/27 11:51:52;;;;;;;4.30;1.58;;;;;;;;;;10316428;28;20065;-89
2023/04/27 11:57:05;;;;;;;2.97;1.30;;;;;;;;;;10318960;28;20055;-88
2023/04/27 12:02:09;;;;;;;4.25;1.85;;;;;;;;;;10316525;28;20046;-87
2023/04/27 12:07:13;;;;;;;2.55;1.40;;;;;;;;;;10307733;28;20057;-90
2023/04/27 12:12:21;;;;;;;2.38;1.40;;;;;;;;;;10304535;28;20050;-86
2023/04/27 12:17:25;;;;;;;1.33;0.93;;;;;;;;;;10304691;28;20126;-87
2023/04/27 12:22:30;;;;;;;1.83;1.15;;;;;;;;;;10318474;28;20046;-85
2023/04/27 12:27:37;;;;;;;3.63;1.90;;;;;;;;;;10320244;28;20571;-86
2023/04/27 12:32:41;;;;;;;3.00;1.17;;;;;;;;;;10317882;28;20051;-89
2023/04/27 12:37:44;;;;;;;2.70;1.30;;;;;;;;;;10319517;28;20777;-85
2023/04/27 12:42:49;;;;;;;2.78;1.75;;;;;;;;;;10310697;28;20046;-86
2023/04/27 12:47:55;;;;;;;3.22;1.73;;;;;;;;;;10308680;28;20600;-86
2023/04/27 12:53:04;;;;;;;2.80;1.55;;;;;;;;;;10318795;28;20050;-88
2023/04/27 12:58:09;;;;;;;3.15;1.98;;;;;;;;;;10319663;28;20050;-85
2023/04/27 13:03:13;;;;;;;1.67;1.07;;;;;;;;;;10319164;28;20105;-88
2023/04/27 13:08:16;;;;;;;5.45;1.52;;;;;;;;;;10324706;28;20042;-85
2023/04/27 13:13:21;;;;;;;2.05;0.88;;;;;;;;;;10326332;28;20133;-88
2023/04/27 13:18:25;;;;;;;2.10;1.10;;;;;;;;;;10327334;28;20046;-85
2023/04/27 13:23:28;;;;;;;1.17;0.88;;;;;;;;;;10315682;28;20212;-88
2023/04/27 13:28:35;;;;;;;1.52;1.08;;;;;;;;;;10326455;28;20116;-86
2023/04/27 13:33:41;;;;;;;2.88;1.52;;;;;;;;;;10324661;28;20054;-89
2023/04/27 13:38:44;;;;;;;2.65;1.17;;;;;;;;;;10325116;28;20109;-85
2023/04/27 13:43:50;;;;;;;1.70;1.00;;;;;;;;;;10321303;28;20050;-86
2023/04/27 13:48:58;;;;;;;2.63;1.20;;;;;;;;;;10322140;28;20719;-85
2023/04/27 13:54:03;;;;;;;3.25;1.38;;;;;;;;;;10324038;28;20053;-86
2023/04/27 13:59:12;;;;;;;2.65;1.33;;;;;;;;;;10315776;28;20896;-86
2023/04/27 14:04:16;;;;;;;2.58;1.30;;;;;;;;;;10307601;28;20137;-85
2023/04/27 14:09:20;;;;;;;3.17;1.48;;;;;;;;;;10304761;28;20054;-83
2023/04/27 14:14:25;;;;;;;2.95;1.30;;;;;;;;;;10324717;28;20059;-83
2023/04/27 14:19:28;;;;;;;2.30;0.90;;;;;;;;;;10318832;28;20057;-85
2023/04/27 14:24:31;;;;;;;1.85;1.15;;;;;;;;;;10321595;28;20105;-84
2023/04/27 14:29:36;;;;;;;3.05;1.30;;;;;;;;;;10296398;28;20060;-87
2023/04/27 14:34:39;;;;;;;1.85;1.25;;;;;;;;;;10302473;28;20133;-83
2023/04/27 14:39:43;;;;;;;2.00;1.30;;;;;;;;;;10315698;28;20141;-87
2023/04/27 14:44:48;;;;;;;2.20;1.13;;;;;;;;;;10315211;28;20145;-83
2023/04/27 14:49:52;;;;;;;1.48;0.90;;;;;;;;;;10317321;28;20057;-85
2023/04/27 14:54:55;;;;;;;2.85;0.98;;;;;;;;;;10307580;28;20105;-87
2023/04/27 15:00:00;;;;;;;3.22;1.35;;;;;;;;;;10316950;28;20049;-87
2023/04/27 15:05:07;;;;;;;1.77;1.35;;;;;;;;;;10316894;28;20128;-84
2023/04/27 15:10:11;;;;;;;2.33;1.15;;;;;;;;;;10313342;28;20046;-84
2023/04/27 15:15:16;;;;;;;3.05;1.33;;;;;;;;;;10318910;28;20101;-84
2023/04/27 15:20:19;;;;;;;1.13;0.70;;;;;;;;;;10306143;28;20765;-83
2023/04/27 15:25:23;;;;;;;1.85;0.93;;;;;;;;;;10316998;28;20042;-83
2023/04/27 15:30:28;;;;;;;2.08;1.00;;;;;;;;;;10316474;28;20145;-84
2023/04/27 15:35:31;;;;;;;2.70;1.02;;;;;;;;;;10328310;28;20057;-84
2023/04/27 15:40:35;;;;;;;1.27;0.73;;;;;;;;;;10311134;28;20058;-84
2023/04/27 15:45:40;;;;;;;1.67;0.98;;;;;;;;;;10323513;28;20042;-84
2023/04/27 15:50:45;;;;;;;1.00;0.80;;;;;;;;;;10321667;28;20078;-85
2023/04/27 15:55:48;;;;;;;3.55;1.10;;;;;;;;;;10314234;28;20061;-87
2023/04/27 16:00:53;;;;;;;2.63;1.27;;;;;;;;;;10320435;28;20080;-85
2023/04/27 16:05:56;;;;;;;1.60;1.02;;;;;;;;;;10323892;28;20053;-83
2023/04/27 16:11:01;;;;;;;1.80;0.73;;;;;;;;;;10322802;28;20049;-84
2023/04/27 16:16:07;;;;;;;2.30;1.00;;;;;;;;;;10321665;28;20424;-84
2023/04/27 16:21:10;;;;;;;3.30;1.30;;;;;;;;;;10316540;28;20042;-87
2023/04/27 16:26:14;;;;;;;1.90;0.60;;;;;;;;;;10322683;28;20100;-85
2023/04/27 16:31:19;;;;;;;2.90;1.08;;;;;;;;;;10322117;28;20047;-84
2023/04/27 16:36:23;;;;;;;2.35;0.90;;;;;;;;;;10322724;28;20046;-84
2023/04/27 16:41:26;;;;;;;2.78;0.70;;;;;;;;;;10322944;28;20038;-83
2023/04/27 16:46:31;;;;;;;1.30;0.68;;;;;;;;;;10329892;28;20046;-85
2023/04/27 16:51:35;;;;;;;1.75;0.80;;;;;;;;;;10330382;28;20061;-84
2023/04/27 16:56:38;;;;;;;2.58;0.82;;;;;;;;;;10324721;28;20091;-83
2023/04/27 17:01:43;;;;;;;0.85;0.57;;;;;;;;;;10347070;28;20065;-83
2023/04/27 17:06:47;;;;;;;0.73;0.70;;;;;;;;;;10328604;28;20038;-83
2023/04/27 17:11:50;;;;;;;1.10;0.70;;;;;;;;;;10324279;28;20038;-82
2023/04/27 17:16:55;;;;;;;2.70;1.70;;;;;;;;;;10329475;28;20046;-87
2023/04/27 17:22:05;;;;;;;2.05;1.10;;;;;;;;;;10311913;28;20065;-87
2023/04/27 17:27:14;;;;;;;3.05;1.00;;;;;;;;;;10315989;28;20039;-89
2023/04/27 17:32:28;;;;;;;0.88;0.60;;;;;;;;;;10304318;28;20104;-86
2023/04/27 17:37:35;;;;;;;1.45;0.80;;;;;;;;;;10309198;28;20058;-83
2023/04/27 17:42:39;;;;;;;0.68;0.68;;;;;;;;;;10310963;28;20062;-84
2023/04/27 17:47:43;;;;;;;0.95;0.80;;;;;;;;;;10319883;28;20668;-85
2023/04/27 17:52:49;;;;;;;2.13;0.90;;;;;;;;;;10317285;28;20738;-84
2023/04/27 17:57:53;;;;;;;2.50;1.00;;;;;;;;;;10321151;28;20034;-89
2023/04/27 18:02:58;;;;;;;2.08;0.90;;;;;;;;;;10311530;28;20046;-87
2023/04/27 18:08:07;;;;;;;1.75;0.85;;;;;;;;;;10323140;28;20097;-85
2023/04/27 18:13:11;;;;;;;1.15;0.85;;;;;;;;;;10330186;28;20054;-84
2023/04/27 18:18:20;;;;;;;1.77;0.95;;;;;;;;;;10323139;28;20725;-85
2023/04/27 18:23:24;;;;;;;3.53;0.80;;;;;;;;;;10326707;28;20058;-86
2023/04/27 18:28:27;;;;;;;1.30;0.80;;;;;;;;;;10323623;28;20042;-84
2023/04/27 18:33:32;;;;;;;1.50;1.05;;;;;;;;;;10331089;28;20128;-85
2023/04/27 18:38:36;;;;;;;1.45;0.90;;;;;;;;;;10320150;28;20129;-84
2023/04/27 18:43:39;;;;;;;1.42;0.80;;;;;;;;;;10325999;28;20514;-87
2023/04/27 18:48:44;;;;;;;2.50;1.13;;;;;;;;;;10323889;28;20114;-84
2023/04/27 18:53:47;;;;;;;1.48;1.00;;;;;;;;;;10324606;28;20901;-85
2023/04/27 18:58:52;;;;;;;2.47;1.20;;;;;;;;;;10316354;28;20077;-84
2023/04/27 19:03:59;;;;;;;1.60;1.30;;;;;;;;;;10314328;28;20113;-86
2023/04/27 19:09:03;;;;;;;2.42;1.48;;;;;;;;;;10313180;28;20054;-86
2023/04/27 19:14:07;;;;;;;2.25;1.30;;;;;;;;;;10325133;28;20088;-84
2023/04/27 19:19:11;;;;;;;3.20;1.30;;;;;;;;;;10321842;28;20061;-87
2023/04/27 19:24:15;;;;;;;2.55;1.33;;;;;;;;;;10320868;28;20050;-84
2023/04/27 19:29:19;;;;;;;2.10;1.38;;;;;;;;;;10318614;28;20114;-88
2023/04/27 19:34:23;;;;;;;2.95;1.50;;;;;;;;;;10299356;28;20114;-84
2023/04/27 19:39:28;;;;;;;3.90;1.33;;;;;;;;;;10298446;28;20058;-85
2023/04/27 19:44:31;;;;;;;2.63;1.48;;;;;;;;;;10308288;28;20115;-84
2023/04/27 19:49:38;;;;;;;3.83;1.90;;;;;;;;;;10319585;28;20061;-84
2023/04/27 19:54:41;;;;;;;6.17;2.17;;;;;;;;;;10301238;28;20046;-84
2023/04/27 19:59:45;;;;;;;2.80;1.77;;;;;;;;;;10324366;28;20058;-87
2023/04/27 20:04:54;;;;;;;3.50;2.10;;;;;;;;;;10318805;28;20519;-88
2023/04/27 20:09:58;;;;;;;3.58;2.08;;;;;;;;;;10312180;28;20038;-84
2023/04/27 20:15:05;;;;;;;2.72;1.90;;;;;;;;;;10321100;28;20782;-87
2023/04/27 20:20:13;;;;;;;2.72;1.90;;;;;;;;;;10323269;28;20046;-85
2023/04/27 20:25:18;;;;;;;2.63;1.80;;;;;;;;;;10317966;28;20077;-84
2023/04/27 20:30:26;;;;;;;5.80;3.33;;;;;;;;;;10322405;28;20109;-85
2023/04/27 20:35:32;;;;;;;11.95;6.47;;;;;;;;;;10303246;28;20105;-87
2023/04/27 20:40:40;;;;;;;9.18;4.68;;;;;;;;;;10308155;28;20406;-86
2023/04/27 20:45:45;;;;;;;5.15;3.50;;;;;;;;;;10312145;28;20047;-85
2023/04/27 20:51:06;;;;;;;4.15;2.65;;;;;;;;;;10320459;28;20137;-85
2023/04/27 20:56:10;;;;;;;2.72;2.10;;;;;;;;;;10327125;28;20046;-84
2023/04/27 21:01:14;;;;;;;4.93;2.13;;;;;;;;;;10315795;28;20042;-85
2023/04/27 21:06:22;;;;;;;5.03;1.92;;;;;;;;;;10324726;28;20124;-87
2023/04/27 21:11:29;;;;;;;3.90;2.20;;;;;;;;;;10320402;28;20707;-84
2023/04/27 21:16:35;;;;;;;4.10;2.45;;;;;;;;;;10321327;28;20054;-85
2023/04/27 21:21:49;;;;;;;1.95;1.70;;;;;;;;;;10320740;28;20126;-85
2023/04/27 21:26:52;;;;;;;4.47;1.90;;;;;;;;;;10331066;28;20047;-88
2023/04/27 21:31:57;;;;;;;2.47;1.73;;;;;;;;;;10315958;28;20074;-85
2023/04/27 21:37:05;;;;;;;3.10;1.75;;;;;;;;;;10319954;28;20897;-86
2023/04/27 21:42:11;;;;;;;3.28;2.20;;;;;;;;;;10317034;28;20049;-85
2023/04/27 21:47:14;;;;;;;2.85;2.00;;;;;;;;;;10320450;28;20042;-85
2023/04/27 21:52:20;;;;;;;3.25;2.47;;;;;;;;;;10322176;28;20046;-88
2023/04/27 21:57:26;;;;;;;4.80;2.80;;;;;;;;;;10313257;28;20049;-84
2023/04/27 22:02:32;;;;;;;4.75;3.13;;;;;;;;;;10313660;28;20461;-84
2023/04/27 22:07:39;;;;;;;5.27;3.47;;;;;;;;;;10315574;28;20268;-85
2023/04/27 22:12:45;;;;;;;4.70;2.60;;;;;;;;;;10318478;28;20053;-84
2023/04/27 22:17:52;;;;;;;2.90;2.03;;;;;;;;;;10305882;28;20062;-87
2023/04/27 22:23:01;;;;;;;2.88;1.95;;;;;;;;;;10321624;28;20069;-85
2023/04/27 22:28:04;;;;;;;2.92;1.80;;;;;;;;;;10316350;28;20050;-84
2023/04/27 22:33:08;;;;;;;4.60;1.90;;;;;;;;;;10323098;28;20057;-85
2023/04/27 22:38:13;;;;;;;3.90;2.03;;;;;;;;;;10308477;28;20081;-84
2023/04/27 22:43:17;;;;;;;4.60;2.15;;;;;;;;;;10314804;28;20145;-85
2023/04/27 22:48:20;;;;;;;3.55;2.55;;;;;;;;;;10311130;28;20054;-84
2023/04/27 22:53:25;;;;;;;3.15;1.90;;;;;;;;;;10314163;28;20057;-87
2023/04/27 22:58:35;;;;;;;3.92;2.15;;;;;;;;;;10312527;28;20061;-85
2023/04/27 23:03:39;;;;;;;4.03;1.77;;;;;;;;;;10306095;28;20580;-88
2023/04/27 23:08:45;;;;;;;2.95;2.00;;;;;;;;;;10318240;28;20054;-84
2023/04/27 23:13:49;;;;;;;;;;;;;;;;;;10312338;28;20054;-85
2023/04/27 23:18:52;;;;;;;2.47;1.73;;;;;;;;;;10316729;28;19929;-85
2023/04/27 23:23:57;;;;;;;3.47;1.58;;;;;;;;;;10320807;28;20046;-88
2023/04/27 23:29:01;;;;;;;1.92;1.38;;;;;;;;;;10314474;28;20652;-86
2023/04/27 23:34:04;;;;;;;2.75;1.75;;;;;;;;;;10319884;28;20053;-89
2023/04/27 23:39:10;;;;;;;3.30;1.98;;;;;;;;;;10319301;28;20046;-85
2023/04/27 23:44:15;;;;;;;3.08;2.20;;;;;;;;;;10314257;28;20321;-88
2023/04/27 23:49:19;;;;;;;2.72;1.80;;;;;;;;;;10319318;28;20432;-88
2023/04/27 23:54:24;;;;;;;3.10;1.55;;;;;;;;;;10315206;28;20133;-85
2023/04/27 23:59:28;;;;;;;2.80;1.83;;;;;;;;;;10318179;28;20046;-86
